LVLRG KSRQ-KMIA
Flight info
| Callsign | LVLRG |
|---|---|
| Flight time | 0h 41m |
| Altitude | 19000 |
| Route | V579 RSW PALMZ |
| Aircraft | B350/L-SDF/C |
Departure
| Time | 2026-04-26 20:26 |
|---|---|
| Airport | Sarasota Bradenton International Airport (KSRQ) |
Arrival
| Time | 2026-04-26 21:07 |
|---|---|
| Airport | Miami International Airport (KMIA) |
| Time | Latitude | Longitude | Altitude | Speed | Heading |
|---|---|---|---|---|---|
| 2026-04-26 20:05 | 27.39532 | -82.55851 | 40 ft | 0 kts | 226° |
| 2026-04-26 20:20 | 27.39511 | -82.55857 | 31 ft | 5 kts | 107° |
| 2026-04-26 20:20 | 27.39502 | -82.55801 | 31 ft | 9 kts | 106° |
| 2026-04-26 20:20 | 27.39493 | -82.55733 | 32 ft | 8 kts | 53° |
| 2026-04-26 20:21 | 27.39505 | -82.55720 | 32 ft | 0 kts | 42° |
| 2026-04-26 20:22 | 27.39519 | -82.55654 | 31 ft | 16 kts | 122° |
| 2026-04-26 20:22 | 27.39429 | -82.55553 | 30 ft | 20 kts | 131° |
| 2026-04-26 20:22 | 27.39327 | -82.55440 | 28 ft | 21 kts | 134° |
| 2026-04-26 20:22 | 27.39227 | -82.55327 | 27 ft | 21 kts | 135° |
| 2026-04-26 20:23 | 27.39127 | -82.55210 | 28 ft | 20 kts | 135° |
| 2026-04-26 20:23 | 27.39034 | -82.55100 | 29 ft | 19 kts | 135° |
| 2026-04-26 20:23 | 27.38941 | -82.55003 | 29 ft | 18 kts | 134° |
| 2026-04-26 20:23 | 27.38858 | -82.54901 | 32 ft | 17 kts | 134° |
| 2026-04-26 20:24 | 27.38767 | -82.54801 | 33 ft | 20 kts | 134° |
| 2026-04-26 20:24 | 27.38656 | -82.54687 | 34 ft | 22 kts | 131° |
| 2026-04-26 20:24 | 27.38595 | -82.54593 | 33 ft | 9 kts | 126° |
| 2026-04-26 20:24 | 27.38583 | -82.54573 | 33 ft | 0 kts | 112° |
| 2026-04-26 20:25 | 27.38589 | -82.54539 | 31 ft | 15 kts | 53° |
| 2026-04-26 20:25 | 27.38783 | -82.54654 | 31 ft | 51 kts | 311° |
| 2026-04-26 20:25 | 27.39188 | -82.55109 | 26 ft | 110 kts | 315° |
| 2026-04-26 20:26 | 27.39796 | -82.55746 | 372 ft | 122 kts | 315° |
| 2026-04-26 20:26 | 27.40436 | -82.56369 | 965 ft | 125 kts | 314° |
| 2026-04-26 20:26 | 27.40929 | -82.57247 | 1330 ft | 145 kts | 278° |
| 2026-04-26 20:26 | 27.40822 | -82.58398 | 1922 ft | 148 kts | 261° |
| 2026-04-26 20:27 | 27.40647 | -82.59575 | 2330 ft | 159 kts | 261° |
| 2026-04-26 20:27 | 27.40436 | -82.60838 | 2691 ft | 170 kts | 259° |
| 2026-04-26 20:27 | 27.40193 | -82.62129 | 3254 ft | 165 kts | 261° |
| 2026-04-26 20:27 | 27.40041 | -82.63394 | 3800 ft | 165 kts | 265° |
| 2026-04-26 20:28 | 27.39918 | -82.64719 | 4147 ft | 176 kts | 266° |
| 2026-04-26 20:28 | 27.39788 | -82.66101 | 4705 ft | 175 kts | 266° |
| 2026-04-26 20:28 | 27.39660 | -82.67433 | 5316 ft | 170 kts | 264° |
| 2026-04-26 20:28 | 27.39220 | -82.68707 | 5639 ft | 187 kts | 233° |
| 2026-04-26 20:29 | 27.38072 | -82.69505 | 5905 ft | 207 kts | 195° |
| 2026-04-26 20:29 | 27.36637 | -82.69320 | 6356 ft | 213 kts | 155° |
| 2026-04-26 20:29 | 27.35373 | -82.68532 | 7064 ft | 204 kts | 152° |
| 2026-04-26 20:29 | 27.34127 | -82.67715 | 7459 ft | 214 kts | 150° |
| 2026-04-26 20:30 | 27.32816 | -82.66845 | 7793 ft | 222 kts | 153° |
| 2026-04-26 20:30 | 27.31465 | -82.66048 | 8402 ft | 215 kts | 155° |
| 2026-04-26 20:30 | 27.30149 | -82.65297 | 9011 ft | 213 kts | 155° |
| 2026-04-26 20:30 | 27.28800 | -82.64516 | 9345 ft | 224 kts | 154° |
| 2026-04-26 20:31 | 27.27403 | -82.63720 | 9864 ft | 222 kts | 156° |
| 2026-04-26 20:31 | 27.26058 | -82.62958 | 10532 ft | 212 kts | 155° |
| 2026-04-26 20:31 | 27.24753 | -82.62166 | 10982 ft | 218 kts | 152° |
| 2026-04-26 20:31 | 27.23415 | -82.61328 | 11413 ft | 219 kts | 154° |
| 2026-04-26 20:32 | 27.22091 | -82.60522 | 11988 ft | 218 kts | 154° |
| 2026-04-26 20:32 | 27.20672 | -82.59682 | 12032 ft | 242 kts | 154° |
| 2026-04-26 20:32 | 27.19142 | -82.58757 | 12035 ft | 261 kts | 153° |
| 2026-04-26 20:32 | 27.17490 | -82.57718 | 12044 ft | 276 kts | 152° |
| 2026-04-26 20:33 | 27.15782 | -82.56628 | 12039 ft | 287 kts | 152° |
| 2026-04-26 20:33 | 27.14035 | -82.55548 | 12068 ft | 293 kts | 153° |
| 2026-04-26 20:33 | 27.12221 | -82.54450 | 12090 ft | 299 kts | 153° |
| 2026-04-26 20:33 | 27.10376 | -82.53332 | 12055 ft | 304 kts | 153° |
| 2026-04-26 20:34 | 27.08493 | -82.52226 | 12039 ft | 307 kts | 154° |
| 2026-04-26 20:34 | 27.06586 | -82.51119 | 12040 ft | 309 kts | 154° |
| 2026-04-26 20:34 | 27.04669 | -82.50024 | 12057 ft | 310 kts | 154° |
| 2026-04-26 20:34 | 27.02833 | -82.48765 | 12182 ft | 307 kts | 141° |
| 2026-04-26 20:35 | 27.01434 | -82.47048 | 12654 ft | 293 kts | 122° |
| 2026-04-26 20:35 | 27.00332 | -82.45194 | 13275 ft | 275 kts | 123° |
| 2026-04-26 20:35 | 26.99309 | -82.43480 | 14045 ft | 257 kts | 123° |
| 2026-04-26 20:35 | 26.98349 | -82.41825 | 14539 ft | 252 kts | 122° |
| 2026-04-26 20:36 | 26.97402 | -82.40169 | 14876 ft | 254 kts | 124° |
| 2026-04-26 20:36 | 26.96388 | -82.38490 | 14979 ft | 267 kts | 125° |
| 2026-04-26 20:36 | 26.95221 | -82.36790 | 14930 ft | 282 kts | 129° |
| 2026-04-26 20:36 | 26.93978 | -82.35034 | 14933 ft | 292 kts | 129° |
| 2026-04-26 20:37 | 26.92664 | -82.33258 | 14957 ft | 299 kts | 130° |
| 2026-04-26 20:37 | 26.91318 | -82.31455 | 15021 ft | 303 kts | 130° |
| 2026-04-26 20:37 | 26.89978 | -82.29621 | 15027 ft | 308 kts | 129° |
| 2026-04-26 20:37 | 26.88607 | -82.27742 | 14992 ft | 313 kts | 130° |
| 2026-04-26 20:38 | 26.87204 | -82.25877 | 14995 ft | 315 kts | 131° |
| 2026-04-26 20:38 | 26.85763 | -82.24021 | 14995 ft | 316 kts | 132° |
| 2026-04-26 20:38 | 26.84291 | -82.22179 | 14994 ft | 318 kts | 133° |
| 2026-04-26 20:38 | 26.82804 | -82.20338 | 14993 ft | 319 kts | 133° |
| 2026-04-26 20:39 | 26.81308 | -82.18500 | 14984 ft | 320 kts | 133° |
| 2026-04-26 20:39 | 26.80314 | -82.17280 | 14986 ft | 320 kts | 133° |
| 2026-04-26 20:39 | 26.78304 | -82.14817 | 14983 ft | 320 kts | 133° |
| 2026-04-26 20:39 | 26.76822 | -82.13000 | 14985 ft | 320 kts | 133° |
| 2026-04-26 20:40 | 26.75318 | -82.11157 | 14987 ft | 320 kts | 133° |
| 2026-04-26 20:40 | 26.73811 | -82.09311 | 14986 ft | 321 kts | 133° |
| 2026-04-26 20:40 | 26.72311 | -82.07473 | 14984 ft | 321 kts | 133° |
| 2026-04-26 20:40 | 26.70806 | -82.05625 | 14982 ft | 321 kts | 133° |
| 2026-04-26 20:41 | 26.69304 | -82.03781 | 14975 ft | 322 kts | 133° |
| 2026-04-26 20:41 | 26.68284 | -82.02529 | 14972 ft | 322 kts | 133° |
| 2026-04-26 20:41 | 26.66813 | -82.00651 | 14971 ft | 321 kts | 127° |
| 2026-04-26 20:41 | 26.65705 | -81.98526 | 14969 ft | 321 kts | 113° |
| 2026-04-26 20:42 | 26.64862 | -81.96189 | 14969 ft | 320 kts | 109° |
| 2026-04-26 20:42 | 26.64100 | -81.93856 | 14969 ft | 320 kts | 108° |
| 2026-04-26 20:42 | 26.63368 | -81.91534 | 14973 ft | 320 kts | 108° |
| 2026-04-26 20:42 | 26.62629 | -81.89152 | 14969 ft | 320 kts | 108° |
| 2026-04-26 20:43 | 26.61910 | -81.86831 | 14972 ft | 321 kts | 109° |
| 2026-04-26 20:43 | 26.60898 | -81.84614 | 14972 ft | 322 kts | 124° |
| 2026-04-26 20:43 | 26.59502 | -81.82649 | 14968 ft | 321 kts | 135° |
| 2026-04-26 20:43 | 26.57872 | -81.80949 | 14968 ft | 321 kts | 139° |
| 2026-04-26 20:44 | 26.56182 | -81.79324 | 14973 ft | 321 kts | 141° |
| 2026-04-26 20:44 | 26.54471 | -81.77721 | 14976 ft | 321 kts | 141° |
| 2026-04-26 20:44 | 26.52692 | -81.76233 | 14982 ft | 319 kts | 150° |
| 2026-04-26 20:44 | 26.50759 | -81.75034 | 14979 ft | 318 kts | 156° |
| 2026-04-26 20:45 | 26.48697 | -81.74164 | 14977 ft | 316 kts | 165° |
| 2026-04-26 20:45 | 26.46578 | -81.73504 | 14979 ft | 315 kts | 171° |
| 2026-04-26 20:45 | 26.44421 | -81.73107 | 14982 ft | 314 kts | 175° |
| 2026-04-26 20:45 | 26.42262 | -81.72696 | 14978 ft | 316 kts | 170° |
| 2026-04-26 20:46 | 26.40133 | -81.72070 | 14975 ft | 317 kts | 166° |
| 2026-04-26 20:46 | 26.38050 | -81.71251 | 14973 ft | 318 kts | 160° |
| 2026-04-26 20:46 | 26.36011 | -81.70301 | 14979 ft | 318 kts | 159° |
| 2026-04-26 20:46 | 26.34004 | -81.69250 | 14975 ft | 319 kts | 155° |
| 2026-04-26 20:47 | 26.32041 | -81.68101 | 14981 ft | 319 kts | 153° |
| 2026-04-26 20:47 | 26.30747 | -81.67320 | 14976 ft | 319 kts | 153° |
| 2026-04-26 20:47 | 26.28147 | -81.65729 | 14979 ft | 319 kts | 153° |
| 2026-04-26 20:47 | 26.26204 | -81.64530 | 14978 ft | 319 kts | 153° |
| 2026-04-26 20:48 | 26.24246 | -81.63338 | 14979 ft | 319 kts | 155° |
| 2026-04-26 20:48 | 26.22220 | -81.62341 | 14979 ft | 318 kts | 160° |
| 2026-04-26 20:48 | 26.20179 | -81.61474 | 14978 ft | 318 kts | 162° |
| 2026-04-26 20:48 | 26.18075 | -81.60617 | 14977 ft | 318 kts | 162° |
| 2026-04-26 20:49 | 26.15993 | -81.59775 | 14981 ft | 318 kts | 162° |
| 2026-04-26 20:49 | 26.13907 | -81.58932 | 14981 ft | 319 kts | 162° |
| 2026-04-26 20:49 | 26.11854 | -81.58098 | 14981 ft | 318 kts | 162° |
| 2026-04-26 20:49 | 26.09777 | -81.57249 | 14983 ft | 318 kts | 162° |
| 2026-04-26 20:50 | 26.07696 | -81.56393 | 14989 ft | 318 kts | 162° |
| 2026-04-26 20:50 | 26.05622 | -81.55532 | 14999 ft | 318 kts | 161° |
| 2026-04-26 20:50 | 26.03545 | -81.54673 | 15009 ft | 318 kts | 162° |
| 2026-04-26 20:50 | 26.01477 | -81.53837 | 14968 ft | 317 kts | 162° |
| 2026-04-26 20:51 | 25.99387 | -81.53001 | 14731 ft | 322 kts | 163° |
| 2026-04-26 20:51 | 25.97251 | -81.52179 | 14486 ft | 326 kts | 163° |
| 2026-04-26 20:51 | 25.95098 | -81.51363 | 14289 ft | 327 kts | 163° |
| 2026-04-26 20:51 | 25.92923 | -81.50566 | 14028 ft | 330 kts | 164° |
| 2026-04-26 20:52 | 25.90731 | -81.49797 | 13795 ft | 332 kts | 165° |
| 2026-04-26 20:52 | 25.88556 | -81.48955 | 13617 ft | 330 kts | 156° |
| 2026-04-26 20:52 | 25.86746 | -81.47406 | 13378 ft | 332 kts | 129° |
| 2026-04-26 20:52 | 25.85702 | -81.45137 | 13046 ft | 332 kts | 104° |
| 2026-04-26 20:53 | 25.85426 | -81.42600 | 12713 ft | 330 kts | 85° |
| 2026-04-26 20:53 | 25.85775 | -81.40105 | 12495 ft | 324 kts | 73° |
| 2026-04-26 20:53 | 25.86393 | -81.37720 | 12250 ft | 321 kts | 69° |
| 2026-04-26 20:53 | 25.87094 | -81.35361 | 11930 ft | 321 kts | 69° |
| 2026-04-26 20:54 | 25.87782 | -81.33017 | 11631 ft | 319 kts | 69° |
| 2026-04-26 20:54 | 25.88457 | -81.30672 | 11345 ft | 317 kts | 70° |
| 2026-04-26 20:54 | 25.89093 | -81.28346 | 11063 ft | 315 kts | 71° |
| 2026-04-26 20:54 | 25.89495 | -81.25952 | 10698 ft | 317 kts | 83° |
| 2026-04-26 20:55 | 25.89671 | -81.23510 | 10400 ft | 315 kts | 84° |
| 2026-04-26 20:55 | 25.89791 | -81.21096 | 10172 ft | 311 kts | 87° |
| 2026-04-26 20:55 | 25.89785 | -81.18725 | 9863 ft | 311 kts | 89° |
| 2026-04-26 20:55 | 25.89684 | -81.16322 | 9487 ft | 310 kts | 93° |
| 2026-04-26 20:56 | 25.89492 | -81.13953 | 9116 ft | 306 kts | 94° |
| 2026-04-26 20:56 | 25.89306 | -81.11622 | 8857 ft | 301 kts | 94° |
| 2026-04-26 20:56 | 25.89123 | -81.09320 | 8563 ft | 298 kts | 95° |
| 2026-04-26 20:56 | 25.88877 | -81.07039 | 8260 ft | 296 kts | 96° |
| 2026-04-26 20:57 | 25.88602 | -81.04786 | 8027 ft | 293 kts | 97° |
| 2026-04-26 20:57 | 25.88317 | -81.02552 | 7754 ft | 291 kts | 97° |
| 2026-04-26 20:57 | 25.87985 | -81.00336 | 7441 ft | 292 kts | 99° |
| 2026-04-26 20:57 | 25.87650 | -80.98118 | 7141 ft | 291 kts | 99° |
| 2026-04-26 20:58 | 25.87331 | -80.95903 | 6894 ft | 288 kts | 98° |
| 2026-04-26 20:58 | 25.87033 | -80.93706 | 6615 ft | 287 kts | 98° |
| 2026-04-26 20:58 | 25.86726 | -80.91521 | 6331 ft | 287 kts | 99° |
| 2026-04-26 20:58 | 25.86418 | -80.89346 | 6066 ft | 285 kts | 99° |
| 2026-04-26 20:59 | 25.86097 | -80.87184 | 5805 ft | 282 kts | 100° |
| 2026-04-26 20:59 | 25.85746 | -80.85046 | 5540 ft | 280 kts | 101° |
| 2026-04-26 20:59 | 25.85363 | -80.82928 | 5271 ft | 279 kts | 102° |
| 2026-04-26 20:59 | 25.84946 | -80.80830 | 4982 ft | 279 kts | 104° |
| 2026-04-26 21:00 | 25.84510 | -80.78749 | 4909 ft | 270 kts | 103° |
| 2026-04-26 21:00 | 25.84113 | -80.76752 | 5016 ft | 263 kts | 103° |
| 2026-04-26 21:00 | 25.83734 | -80.74767 | 4990 ft | 262 kts | 103° |
| 2026-04-26 21:00 | 25.83368 | -80.72802 | 4941 ft | 259 kts | 102° |
| 2026-04-26 21:01 | 25.83015 | -80.70822 | 4724 ft | 263 kts | 102° |
| 2026-04-26 21:01 | 25.82676 | -80.68812 | 4509 ft | 266 kts | 101° |
| 2026-04-26 21:01 | 25.82328 | -80.66777 | 4348 ft | 270 kts | 102° |
| 2026-04-26 21:01 | 25.81990 | -80.64746 | 4147 ft | 273 kts | 101° |
| 2026-04-26 21:02 | 25.81659 | -80.62651 | 3872 ft | 278 kts | 101° |
| 2026-04-26 21:02 | 25.81313 | -80.60491 | 3525 ft | 283 kts | 101° |
| 2026-04-26 21:02 | 25.80946 | -80.58380 | 3234 ft | 282 kts | 102° |
| 2026-04-26 21:02 | 25.80564 | -80.56255 | 3002 ft | 278 kts | 102° |
| 2026-04-26 21:03 | 25.80180 | -80.54197 | 2986 ft | 266 kts | 103° |
| 2026-04-26 21:03 | 25.79821 | -80.52227 | 2987 ft | 256 kts | 102° |
| 2026-04-26 21:03 | 25.79532 | -80.50329 | 2992 ft | 243 kts | 95° |
| 2026-04-26 21:03 | 25.79498 | -80.48485 | 2958 ft | 234 kts | 91° |
| 2026-04-26 21:04 | 25.79599 | -80.46709 | 2902 ft | 229 kts | 84° |
| 2026-04-26 21:04 | 25.79784 | -80.44977 | 2755 ft | 224 kts | 83° |
| 2026-04-26 21:04 | 25.79942 | -80.43258 | 2463 ft | 222 kts | 88° |
| 2026-04-26 21:04 | 25.79990 | -80.41577 | 2170 ft | 215 kts | 91° |
| 2026-04-26 21:05 | 25.79989 | -80.39964 | 1960 ft | 203 kts | 92° |
| 2026-04-26 21:05 | 25.79934 | -80.38400 | 1690 ft | 202 kts | 92° |
| 2026-04-26 21:05 | 25.79980 | -80.36871 | 1499 ft | 196 kts | 90° |
| 2026-04-26 21:05 | 25.80038 | -80.35380 | 1275 ft | 191 kts | 88° |
| 2026-04-26 21:06 | 25.80167 | -80.33958 | 988 ft | 176 kts | 88° |
| 2026-04-26 21:06 | 25.80225 | -80.32709 | 721 ft | 147 kts | 92° |
| 2026-04-26 21:06 | 25.80257 | -80.31630 | 369 ft | 134 kts | 94° |
| 2026-04-26 21:06 | 25.80274 | -80.30645 | 139 ft | 121 kts | 90° |
| 2026-04-26 21:07 | 25.80309 | -80.29780 | 19 ft | 102 kts | 91° |
| 2026-04-26 21:07 | 25.80331 | -80.29100 | 15 ft | 73 kts | 91° |
| 2026-04-26 21:07 | 25.80366 | -80.28697 | 14 ft | 37 kts | 75° |
| 2026-04-26 21:07 | 25.80455 | -80.28537 | 13 ft | 23 kts | 57° |
| 2026-04-26 21:08 | 25.80536 | -80.28500 | 13 ft | 0 kts | 356° |